• Join FlightAware (Why Join?)
  • Login
  • US Flag 
01:31AM EDT


 

Airport Tracker/Info


-or-


 

Live Flight TrackerFlight Track Log ✈ SAS484 ✈ 07-Jun-2013 ✈ ENGM / OSL - ESSA / ARN

Flight Track Log - Related Links

Times and Time Zones

All times are in EDT time to prevent confusion due to time zone crossing. See the SAS484 flight status page for this flight to view local times or setup timezone preferences in your user account.

Time Position Orientation Groundspeed Altitude Reporting Facility
EDT Latitude Longitude Course Direction KTS MPH feet Rate Location/Type
03:23AM 60.1060 11.1430 132° Southeast 244 281 3,700  Level FlightAware
03:24AM 60.0830 11.1970 130° Southeast 263 303 4,900 2,520 Climbing FlightAware
03:24AM 60.0770 11.2340 108° East 268 308 5,600 2,880 Climbing FlightAware
03:24AM 60.0820 11.2800 78° East 270 311 6,600 3,000 Climbing FlightAware
03:25AM 60.1000 11.3190 47° Northeast 278 320 7,600 2,640 Climbing FlightAware
03:25AM 60.1250 11.3660 43° Northeast 299 344 8,600 2,460 Climbing FlightAware
03:26AM 60.1540 11.4240 45° Northeast 314 361 9,900 1,320 Climbing FlightAware
03:26AM 60.1980 11.5100 44° Northeast 322 371 10,300 2,460 Climbing FlightAware
03:27AM 60.2420 11.6330 54° Northeast 13,300 3,660 Climbing FlightAware
03:28AM 60.2750 11.7530 61° Northeast 374 430 15,100 2,700 Climbing FlightAware
03:28AM 60.2730 11.8590 92° East 372 428 16,500 2,760 Climbing FlightAware
03:29AM 60.2510 12.0140 106° East 383 441 18,600 2,760 Climbing FlightAware
03:30AM 60.2320 12.1540 105° East 393 452 20,500 2,760 Climbing FlightAware
03:30AM 60.2130 12.2880 106° East 404 465 22,200 2,760 Climbing FlightAware
03:31AM 60.1890 12.4580 106° East 414 476 24,400 2,700 Climbing FlightAware
03:32AM 60.1740 12.6020 102° East 431 496 26,000 2,460 Climbing FlightAware
03:32AM 60.1620 12.7870 97° East 440 506 27,900 2,340 Climbing FlightAware
03:33AM 60.1520 12.9510 97° East 449 517 29,400 2,340 Climbing FlightAware
03:34AM 60.1400 13.1330 97° East 449 517 31,200 2,340 Climbing FlightAware
03:34AM 60.1280 13.3060 98° East 448 516 32,800 2,040 Climbing FlightAware
03:35AM 60.1160 13.4830 98° East 449 517 34,200 1,560 Climbing FlightAware
03:36AM 60.1050 13.6390 98° East 443 510 35,000 600 Climbing FlightAware
03:36AM 60.0930 13.8100 98° East 441 507 35,000  Level FlightAware
03:37AM 60.0800 13.9880 98° East 440 506 35,000  Level FlightAware
03:38AM 60.0680 14.1470 99° East 439 505 35,000  Level FlightAware
03:39AM 60.0550 14.3250 98° East 439 505 35,000  Level FlightAware
03:39AM 60.0420 14.4940 99° East 440 506 35,000  Level FlightAware
03:40AM 60.0300 14.6530 99° East 441 507 35,000  Level FlightAware
03:41AM 60.0160 14.8280 99° East 441 507 35,000  Level FlightAware
03:41AM 60.0020 15.0050 99° East 445 512 35,000 -780 Level FlightAware
03:42AM 59.9890 15.1590 100° East 448 516 34,000 -2,400 Descending FlightAware
03:43AM 59.9730 15.3410 100° East 455 524 31,700 -2,760 Descending FlightAware
03:43AM 59.9600 15.5040 99° East 443 510 30,200 -2,220 Descending FlightAware
03:44AM 59.9460 15.6610 100° East 432 497 28,800 -2,160 Descending FlightAware
03:45AM 59.9300 15.8480 100° East 418 481 27,100 -2,160 Descending FlightAware
03:46AM 59.9160 16.0040 100° East 407 468 25,600 -2,160 Descending FlightAware
03:46AM 59.9030 16.1510 100° East 397 457 24,200 -1,980 Descending FlightAware
03:47AM 59.8900 16.2910 100° East 386 444 23,000 -1,980 Descending FlightAware
03:48AM 59.8760 16.4410 100° East 377 434 21,500 -2,160 Descending FlightAware
03:48AM 59.8640 16.5800 100° East 372 428 20,000 -2,220 Descending FlightAware
03:49AM 59.8500 16.7190 101° East 367 422 18,500 -2,100 Descending FlightAware
03:50AM 59.8380 16.8510 100° East 362 417 17,100 -1,980 Descending FlightAware
03:50AM 59.8270 16.9900 99° East 355 409 15,800 -1,860 Descending FlightAware
03:51AM 59.8320 17.1220 86° East 347 399 14,500 -1,920 Descending FlightAware
03:52AM 59.8390 17.2540 84° East 342 394 13,100 -1,980 Descending FlightAware
03:53AM 59.8470 17.3840 83° East 337 388 11,800 -1,920 Descending FlightAware
03:53AM 59.8540 17.5180 84° East 332 382 10,400 -1,800 Descending FlightAware
03:54AM 59.8570 17.5750 84° East 327 376 9,900 -1,680 Descending FlightAware
03:54AM 59.8530 17.6380 97° East 319 367 9,300 -1,260 Descending FlightAware
03:54AM 59.8450 17.7210 101° East 300 345 8,900 -960 Descending FlightAware
03:55AM 59.8410 17.7640 100° East 294 338 8,600 -1,380 Descending FlightAware
03:55AM 59.8330 17.8370 102° East 293 337 7,900 -1,620 Descending FlightAware
03:56AM 59.8260 17.9020 102° East 292 336 7,200 -1,740 Descending FlightAware
03:56AM 59.8180 17.9730 103° East 294 338 6,400 -1,500 Descending FlightAware
03:57AM 59.8100 18.0450 102° East 289 333 5,800 -1,260 Descending FlightAware
03:57AM 59.8010 18.1250 103° East 281 323 5,200 -840 Descending FlightAware
03:58AM 59.7930 18.1950 103° East 261 300 5,000 -660 Descending FlightAware
03:58AM 59.7830 18.2560 108° East 248 285 4,600 -900 Descending FlightAware
03:58AM 59.7790 18.2670 126° Southeast 247 284 4,500 -1,020 Descending FlightAware
03:59AM 59.7550 18.3230 130° Southeast 236 272 3,900 -1,200 Descending FlightAware
03:59AM 59.7380 18.3260 175° South 229 264 3,500 -1,380 Descending FlightAware
03:59AM 59.7260 18.3150 205° Southwest 218 251 3,300 -960 Descending FlightAware
03:59AM 59.7180 18.2940 233° Southwest 209 241 3,100 -900 Descending FlightAware
04:00AM 59.7020 18.2540 232° Southwest 200 230 2,700 -1,020 Descending FlightAware
04:00AM 59.6950 18.2280 242° Southwest 195 224 2,400 -960 Descending FlightAware
04:01AM 59.6890 18.1810 256° West 189 217 2,000 -960 Descending FlightAware
04:01AM 59.6850 18.1450 258° West 182 209 1,600 -1,020 Descending FlightAware
04:01AM 59.6810 18.1140 256° West 165 190 1,300 -900 Descending FlightAware
04:02AM 59.6760 18.0750 256° West 138 159 900 -780 Descending FlightAware
04:02AM 59.6720 18.0420 257° West 133 153 600 -660 Descending FlightAware
04:03AM 59.6680 18.0090 257° West 132 152 300 -660 Descending FlightAware
04:03AM 59.6650 17.9870 255° West 136 157 -900 Descending FlightAware
04:06AM 59.6519 17.9186 249° West  Level Estimated
04:07AM 59.6519 17.9186 North  Level Estimated
04:08AM 59.6519 17.9186 North  Level Estimated
04:09AM 59.6519 17.9186 North  Level Estimated